KBHB 252256Z AUTO 14006KT 6SM -RA BR OVC008 01/00 A3015 RMK AO2 CIG 006V011 SLP215 T00060000 FZRANO PNO $